createdAt,value
2023-06-30T00:00:33.560Z,20.22
2023-06-30T00:03:01.488Z,20.14
2023-06-30T00:05:29.321Z,20.12
2023-06-30T00:07:59.768Z,19.99
2023-06-30T00:10:28.907Z,19.89
2023-06-30T00:12:56.573Z,19.89
2023-06-30T00:15:24.228Z,19.87
2023-06-30T00:17:53.909Z,19.90
2023-06-30T00:20:22.483Z,19.89
2023-06-30T00:22:50.258Z,19.80
2023-06-30T00:25:17.961Z,19.68
2023-06-30T00:27:46.957Z,19.65
2023-06-30T00:30:15.420Z,19.68
2023-06-30T00:32:43.070Z,19.75
2023-06-30T00:35:10.883Z,19.77
2023-06-30T00:37:38.735Z,19.80
2023-06-30T00:40:07.326Z,19.83
2023-06-30T00:42:34.977Z,19.83
2023-06-30T00:45:04.130Z,19.81
2023-06-30T00:47:32.144Z,19.77
2023-06-30T00:49:59.872Z,19.73
2023-06-30T00:52:27.646Z,19.76
2023-06-30T00:54:55.348Z,19.74
2023-06-30T00:57:22.980Z,19.68
2023-06-30T00:59:50.628Z,19.65
2023-06-30T01:02:23.337Z,19.57
2023-06-30T01:04:55.251Z,19.57
2023-06-30T01:07:27.006Z,19.58
2023-06-30T01:09:59.197Z,19.55
2023-06-30T01:12:27.239Z,19.51
2023-06-30T01:14:55.642Z,19.51
2023-06-30T01:17:25.914Z,19.44
2023-06-30T01:19:56.613Z,19.40
2023-06-30T01:22:26.793Z,19.45
2023-06-30T01:24:58.990Z,19.42
2023-06-30T01:27:26.459Z,19.48
2023-06-30T01:29:55.319Z,19.42
2023-06-30T01:32:24.696Z,19.44
2023-06-30T01:34:52.681Z,19.46
2023-06-30T01:37:20.341Z,19.50
2023-06-30T01:39:48.024Z,19.49
2023-06-30T01:42:15.823Z,19.51
2023-06-30T01:44:43.800Z,19.46
2023-06-30T01:47:11.969Z,19.45
2023-06-30T01:49:41.070Z,19.44
2023-06-30T01:52:08.887Z,19.46
2023-06-30T01:54:36.609Z,19.48
2023-06-30T01:57:04.612Z,19.46
2023-06-30T01:59:32.253Z,19.40
2023-06-30T02:02:00.022Z,19.39
2023-06-30T02:04:27.768Z,19.33
2023-06-30T02:06:57.077Z,19.33
2023-06-30T02:09:34.471Z,19.29
2023-06-30T02:12:11.201Z,19.27
2023-06-30T02:14:38.838Z,19.28
2023-06-30T02:17:07.789Z,19.29
2023-06-30T02:19:35.462Z,19.30
2023-06-30T02:22:04.788Z,19.28
2023-06-30T02:24:32.426Z,19.30
2023-06-30T02:27:00.060Z,19.27
2023-06-30T02:29:27.701Z,19.24
2023-06-30T02:31:55.433Z,19.24
2023-06-30T02:34:23.168Z,19.24
2023-06-30T02:36:50.867Z,19.24
2023-06-30T02:39:19.865Z,19.27
2023-06-30T02:41:47.467Z,19.27
2023-06-30T02:44:15.115Z,19.25
2023-06-30T02:46:42.738Z,19.25
2023-06-30T02:49:10.380Z,19.25
2023-06-30T02:51:38.180Z,19.28
2023-06-30T02:54:06.063Z,19.31
2023-06-30T02:56:35.038Z,19.30
2023-06-30T02:59:02.860Z,19.28
2023-06-30T03:01:30.590Z,19.26
2023-06-30T03:03:58.333Z,19.27
2023-06-30T03:06:26.056Z,19.16
2023-06-30T03:08:53.701Z,19.14
2023-06-30T03:11:21.309Z,19.12
2023-06-30T03:13:50.609Z,19.11
2023-06-30T03:16:18.282Z,19.12
2023-06-30T03:18:45.955Z,19.11
2023-06-30T03:21:13.580Z,19.05
2023-06-30T03:23:41.611Z,19.06
2023-06-30T03:26:09.298Z,19.05
2023-06-30T03:28:37.774Z,19.08
2023-06-30T03:31:06.815Z,19.05
2023-06-30T03:33:34.561Z,19.08
2023-06-30T03:36:02.202Z,19.02
2023-06-30T03:38:29.836Z,18.97
2023-06-30T03:40:57.505Z,18.97
2023-06-30T03:43:25.231Z,18.96
2023-06-30T03:45:52.869Z,18.93
2023-06-30T03:48:22.682Z,18.86
2023-06-30T03:50:50.615Z,18.82
2023-06-30T03:53:18.267Z,18.66
2023-06-30T03:55:46.281Z,18.66
2023-06-30T03:58:14.089Z,18.56
2023-06-30T04:00:41.722Z,18.54
2023-06-30T04:03:09.871Z,18.54
2023-06-30T04:05:38.997Z,18.53
2023-06-30T04:08:06.816Z,18.50
2023-06-30T04:10:34.782Z,18.54
2023-06-30T04:13:02.434Z,18.52
2023-06-30T04:15:30.031Z,18.51
2023-06-30T04:17:57.744Z,18.45
2023-06-30T04:20:25.384Z,18.48
2023-06-30T04:22:54.395Z,18.51
2023-06-30T04:25:22.236Z,18.56
2023-06-30T04:27:49.853Z,18.61
2023-06-30T04:30:17.476Z,18.56
2023-06-30T04:32:45.209Z,18.49
2023-06-30T04:35:12.848Z,18.54
2023-06-30T04:37:42.233Z,18.58
2023-06-30T04:40:11.752Z,18.59
2023-06-30T04:42:39.901Z,18.61
2023-06-30T04:45:08.617Z,18.65
2023-06-30T04:47:36.322Z,18.67
2023-06-30T04:50:05.308Z,18.66
2023-06-30T04:52:33.011Z,18.66
2023-06-30T04:55:00.614Z,18.65
2023-06-30T04:57:29.614Z,18.64
2023-06-30T04:59:58.034Z,18.65
2023-06-30T05:02:25.701Z,18.67
2023-06-30T05:04:53.370Z,18.69
2023-06-30T05:07:21.568Z,18.69
2023-06-30T05:09:49.295Z,18.62
2023-06-30T05:12:17.123Z,18.61
2023-06-30T05:14:46.118Z,18.57
2023-06-30T05:17:14.121Z,18.58
2023-06-30T05:19:41.833Z,18.56
2023-06-30T05:22:09.522Z,18.55
2023-06-30T05:24:37.130Z,18.54
2023-06-30T05:27:05.247Z,18.54
2023-06-30T05:29:33.299Z,18.54
2023-06-30T05:32:02.373Z,18.55
2023-06-30T05:34:30.118Z,18.57
2023-06-30T05:36:58.001Z,18.60
2023-06-30T05:39:25.651Z,18.65
2023-06-30T05:41:53.277Z,18.66
2023-06-30T05:44:20.938Z,18.68
2023-06-30T05:46:48.627Z,18.70
2023-06-30T05:49:17.642Z,18.72
2023-06-30T05:51:45.325Z,18.74
2023-06-30T05:54:13.795Z,18.67
2023-06-30T05:56:41.486Z,18.64
2023-06-30T05:59:11.442Z,18.65
2023-06-30T06:01:39.642Z,18.66
2023-06-30T06:04:10.690Z,18.65
2023-06-30T06:06:40.013Z,18.68
2023-06-30T06:09:07.873Z,18.68
2023-06-30T06:11:35.580Z,18.70
2023-06-30T06:14:03.197Z,18.73
2023-06-30T06:16:30.840Z,18.67
2023-06-30T06:18:58.525Z,18.68
2023-06-30T06:21:27.508Z,18.71
2023-06-30T06:23:56.564Z,18.70
2023-06-30T06:26:24.225Z,18.68
2023-06-30T06:28:52.457Z,18.69
2023-06-30T06:31:20.304Z,18.68
2023-06-30T06:33:47.999Z,18.69
2023-06-30T06:36:15.629Z,18.70
2023-06-30T06:38:43.313Z,18.72
2023-06-30T06:41:12.280Z,18.69
2023-06-30T06:43:39.901Z,18.65
2023-06-30T06:46:07.705Z,18.58
2023-06-30T06:48:35.347Z,18.50
2023-06-30T06:51:04.458Z,18.54
2023-06-30T06:53:34.010Z,18.54
2023-06-30T06:56:02.952Z,18.56
2023-06-30T06:58:33.206Z,18.60
2023-06-30T07:01:01.144Z,18.66
2023-06-30T07:03:29.903Z,18.71
2023-06-30T07:05:58.121Z,18.73
2023-06-30T07:08:26.082Z,18.75
2023-06-30T07:10:53.771Z,18.75
2023-06-30T07:13:22.676Z,18.78
2023-06-30T07:15:51.989Z,18.72
2023-06-30T07:18:21.037Z,18.74
2023-06-30T07:20:49.180Z,18.78
2023-06-30T07:23:16.963Z,18.79
2023-06-30T07:25:45.301Z,18.75
2023-06-30T07:28:13.724Z,18.78
2023-06-30T07:30:45.226Z,18.76
2023-06-30T07:33:14.536Z,18.82
2023-06-30T07:35:42.458Z,18.86
2023-06-30T07:38:10.700Z,18.90
2023-06-30T07:40:53.731Z,18.97
2023-06-30T07:43:23.240Z,19.00
2023-06-30T07:45:50.933Z,19.07
2023-06-30T07:48:20.183Z,19.12
2023-06-30T07:51:03.414Z,19.18
2023-06-30T07:53:35.741Z,19.23
2023-06-30T07:56:03.413Z,19.32
2023-06-30T07:58:31.036Z,19.39
2023-06-30T08:00:58.669Z,19.48
2023-06-30T08:03:27.805Z,19.53
2023-06-30T08:05:56.577Z,19.59
2023-06-30T08:08:25.214Z,19.66
2023-06-30T08:10:52.883Z,19.66
2023-06-30T08:13:20.524Z,19.75
2023-06-30T08:15:49.498Z,19.81
2023-06-30T08:18:32.474Z,19.79
2023-06-30T08:21:03.864Z,19.83
2023-06-30T08:23:31.749Z,19.93
2023-06-30T08:25:59.445Z,20.02
2023-06-30T08:28:27.119Z,20.10
2023-06-30T08:30:55.050Z,20.17
2023-06-30T08:33:39.934Z,20.22
2023-06-30T08:36:10.408Z,20.33
2023-06-30T08:38:38.084Z,20.39
2023-06-30T08:41:05.852Z,20.54
2023-06-30T08:43:34.055Z,20.67
2023-06-30T08:46:03.483Z,20.79
2023-06-30T08:48:32.332Z,20.85
2023-06-30T08:51:01.131Z,20.86
2023-06-30T08:53:31.811Z,20.66
2023-06-30T08:56:01.005Z,20.58
2023-06-30T08:58:29.158Z,20.68
2023-06-30T09:00:57.591Z,20.78
2023-06-30T09:03:26.014Z,20.88
2023-06-30T09:05:56.589Z,20.93
2023-06-30T09:08:25.491Z,20.97
2023-06-30T09:10:56.190Z,20.95
2023-06-30T09:13:25.662Z,20.99
2023-06-30T09:15:56.748Z,20.99
2023-06-30T09:18:24.486Z,20.99
2023-06-30T09:20:52.166Z,21.05
2023-06-30T09:23:19.800Z,21.07
2023-06-30T09:25:48.338Z,21.02
2023-06-30T09:28:17.751Z,21.00
2023-06-30T09:30:47.014Z,21.00
2023-06-30T09:33:16.025Z,20.97
2023-06-30T09:35:45.231Z,20.96
2023-06-30T09:38:13.729Z,20.91
2023-06-30T09:40:44.403Z,20.84
2023-06-30T09:43:19.261Z,20.78
2023-06-30T09:45:48.965Z,20.66
2023-06-30T09:48:17.174Z,20.55
2023-06-30T09:50:44.862Z,20.50
2023-06-30T09:53:12.619Z,20.38
2023-06-30T09:55:50.650Z,20.30
2023-06-30T09:58:21.523Z,19.92
2023-06-30T10:00:52.575Z,19.78
2023-06-30T10:03:20.458Z,19.80
2023-06-30T10:05:50.530Z,19.78
2023-06-30T10:08:18.655Z,19.63
2023-06-30T10:10:46.378Z,19.44
2023-06-30T10:13:17.012Z,19.42
2023-06-30T10:15:46.753Z,19.40
2023-06-30T10:18:16.299Z,19.11
2023-06-30T10:20:49.087Z,18.96
2023-06-30T10:23:19.021Z,18.83
2023-06-30T10:25:47.154Z,18.84
2023-06-30T10:28:16.064Z,18.90
2023-06-30T10:30:44.350Z,19.00
2023-06-30T10:33:14.046Z,19.07
2023-06-30T10:35:42.422Z,19.21
2023-06-30T10:38:12.652Z,19.34
2023-06-30T10:40:40.379Z,19.38
2023-06-30T10:43:08.293Z,19.31
2023-06-30T10:45:36.856Z,19.38
2023-06-30T10:48:10.412Z,19.49
2023-06-30T10:50:43.532Z,19.53
2023-06-30T10:53:18.474Z,19.68
2023-06-30T10:55:47.016Z,19.88
2023-06-30T10:58:23.828Z,19.92
2023-06-30T11:01:04.539Z,20.02
2023-06-30T11:04:07.522Z,20.13
2023-06-30T11:06:37.512Z,20.24
2023-06-30T11:09:12.559Z,20.49
2023-06-30T11:11:50.025Z,20.36
2023-06-30T11:14:31.829Z,20.43
2023-06-30T11:17:04.300Z,20.43
2023-06-30T11:19:32.063Z,20.53
2023-06-30T11:22:26.450Z,20.63
2023-06-30T11:24:54.493Z,20.64
2023-06-30T11:27:22.717Z,20.79
2023-06-30T11:29:51.346Z,20.85
2023-06-30T11:32:19.843Z,20.94
2023-06-30T11:34:47.895Z,21.19
2023-06-30T11:37:15.548Z,21.29
2023-06-30T11:39:51.639Z,21.32
2023-06-30T11:42:19.536Z,21.31
2023-06-30T11:44:47.207Z,21.32
2023-06-30T11:47:15.482Z,21.39
2023-06-30T11:49:43.322Z,21.56
2023-06-30T11:52:11.356Z,21.67
2023-06-30T11:54:39.040Z,21.72
2023-06-30T11:57:08.228Z,21.76
2023-06-30T11:59:36.125Z,21.63
2023-06-30T12:02:05.626Z,21.56
2023-06-30T12:04:35.431Z,21.51
2023-06-30T12:07:04.437Z,21.67
2023-06-30T12:09:32.222Z,21.78
2023-06-30T12:12:01.435Z,21.91
2023-06-30T12:14:30.613Z,22.04
2023-06-30T12:16:58.356Z,22.15
2023-06-30T12:19:26.823Z,22.30
2023-06-30T12:21:55.948Z,22.40
2023-06-30T12:24:23.902Z,22.56
2023-06-30T12:26:52.732Z,22.80
2023-06-30T12:29:20.865Z,22.77
2023-06-30T12:31:50.181Z,22.79
2023-06-30T12:34:32.695Z,22.89
2023-06-30T12:37:00.488Z,22.93
2023-06-30T12:39:28.356Z,23.07
2023-06-30T12:41:56.123Z,23.18
2023-06-30T12:44:24.081Z,23.21
2023-06-30T12:47:01.666Z,23.33
2023-06-30T12:49:30.009Z,23.64
2023-06-30T12:51:57.779Z,23.88
2023-06-30T12:54:25.783Z,23.77
2023-06-30T12:56:54.814Z,23.77
2023-06-30T12:59:22.672Z,23.89
2023-06-30T13:01:50.379Z,23.84
2023-06-30T13:04:19.393Z,23.89
2023-06-30T13:06:47.058Z,23.99
2023-06-30T13:09:15.022Z,24.01
2023-06-30T13:11:43.150Z,23.97
2023-06-30T13:14:10.865Z,23.93
2023-06-30T13:16:38.581Z,23.87
2023-06-30T13:19:06.334Z,23.78
2023-06-30T13:21:35.316Z,23.68
2023-06-30T13:24:03.000Z,23.50
2023-06-30T13:26:30.645Z,23.35
2023-06-30T13:28:58.280Z,23.17
2023-06-30T13:31:25.918Z,23.28
2023-06-30T13:33:53.640Z,23.12
2023-06-30T13:36:21.260Z,23.29
2023-06-30T13:38:50.256Z,23.36
2023-06-30T13:41:18.076Z,23.29
2023-06-30T13:43:45.725Z,23.41
2023-06-30T13:46:13.475Z,22.57
2023-06-30T13:48:41.667Z,22.69
2023-06-30T13:51:09.340Z,22.90
2023-06-30T13:53:40.021Z,22.94
2023-06-30T13:56:08.990Z,23.02
2023-06-30T13:58:36.643Z,23.10
2023-06-30T14:01:04.309Z,23.06
2023-06-30T14:03:32.012Z,22.90
2023-06-30T14:05:59.836Z,22.88
2023-06-30T14:08:27.618Z,23.03
2023-06-30T14:10:56.497Z,23.00
2023-06-30T14:13:28.491Z,23.23
2023-06-30T14:15:56.172Z,23.47
2023-06-30T14:18:23.865Z,23.25
2023-06-30T14:20:51.483Z,23.52
2023-06-30T14:23:19.126Z,23.42
2023-06-30T14:25:47.123Z,23.29
2023-06-30T14:28:15.056Z,23.03
2023-06-30T14:30:44.310Z,23.09
2023-06-30T14:33:12.019Z,23.11
2023-06-30T14:35:39.675Z,23.07
2023-06-30T14:38:07.746Z,23.31
2023-06-30T14:40:35.713Z,23.29
2023-06-30T14:43:03.456Z,23.34
2023-06-30T14:45:31.420Z,23.06
2023-06-30T14:48:00.499Z,23.29
2023-06-30T14:50:28.296Z,23.19
2023-06-30T14:52:55.991Z,23.08
2023-06-30T14:55:23.943Z,23.11
2023-06-30T14:57:51.996Z,23.22
2023-06-30T15:00:21.047Z,23.24
2023-06-30T15:02:49.402Z,23.19
2023-06-30T15:05:18.527Z,23.24
2023-06-30T15:07:47.716Z,23.13
2023-06-30T15:10:15.829Z,23.01
2023-06-30T15:12:43.487Z,22.89
2023-06-30T15:15:11.646Z,22.73
2023-06-30T15:17:39.352Z,22.67
2023-06-30T15:20:08.438Z,22.58
2023-06-30T15:22:37.590Z,22.71
2023-06-30T15:25:05.761Z,22.80
2023-06-30T15:27:35.625Z,22.73
2023-06-30T15:30:07.072Z,22.80
2023-06-30T15:32:34.879Z,22.83
2023-06-30T15:35:02.566Z,22.82
2023-06-30T15:37:30.245Z,22.81
2023-06-30T15:39:59.216Z,22.52
2023-06-30T15:42:26.904Z,22.60
2023-06-30T15:44:54.572Z,22.63
2023-06-30T15:47:22.247Z,22.64
2023-06-30T15:49:49.881Z,22.75
2023-06-30T15:52:17.641Z,22.85
2023-06-30T15:54:45.325Z,22.80
2023-06-30T15:57:14.299Z,22.94
2023-06-30T15:59:41.932Z,23.01
2023-06-30T16:02:09.568Z,23.06
2023-06-30T16:04:37.257Z,22.88
2023-06-30T16:07:05.244Z,22.66
2023-06-30T16:09:32.936Z,22.73
2023-06-30T16:12:00.605Z,22.83
2023-06-30T16:14:29.667Z,22.86
2023-06-30T16:16:57.347Z,22.83
2023-06-30T16:19:25.017Z,22.76
2023-06-30T16:21:52.658Z,22.66
2023-06-30T16:24:20.293Z,22.70
2023-06-30T16:26:48.018Z,22.62
2023-06-30T16:29:15.696Z,22.34
2023-06-30T16:31:44.690Z,22.41
2023-06-30T16:34:12.445Z,22.28
2023-06-30T16:36:41.091Z,22.25
2023-06-30T16:39:09.239Z,22.06
2023-06-30T16:41:36.893Z,21.95
2023-06-30T16:44:04.644Z,21.91
2023-06-30T16:46:32.368Z,21.92
2023-06-30T16:49:01.340Z,21.97
2023-06-30T16:51:28.956Z,21.91
2023-06-30T16:53:56.568Z,21.99
2023-06-30T16:56:24.231Z,21.89
2023-06-30T16:58:53.628Z,22.08
2023-06-30T17:01:23.024Z,21.99
2023-06-30T17:03:50.746Z,21.91
2023-06-30T17:06:19.821Z,21.70
2023-06-30T17:08:47.468Z,21.57
2023-06-30T17:11:15.095Z,21.62
2023-06-30T17:13:42.735Z,21.64
2023-06-30T17:16:10.351Z,21.58
2023-06-30T17:18:37.987Z,21.49
2023-06-30T17:21:05.620Z,21.48
2023-06-30T17:23:34.595Z,21.30
2023-06-30T17:26:02.230Z,21.31
2023-06-30T17:28:29.947Z,20.76
2023-06-30T17:30:57.644Z,20.40
2023-06-30T17:33:25.350Z,20.02
2023-06-30T17:35:53.026Z,19.96
2023-06-30T17:38:20.693Z,19.80
2023-06-30T17:40:49.671Z,19.74
2023-06-30T17:43:17.368Z,19.76
2023-06-30T17:45:45.596Z,19.62
2023-06-30T17:48:13.842Z,19.63
2023-06-30T17:50:41.647Z,19.84
2023-06-30T17:53:09.352Z,19.93
2023-06-30T17:55:37.071Z,20.04
2023-06-30T17:58:06.065Z,19.97
2023-06-30T18:00:33.715Z,20.01
2023-06-30T18:03:01.370Z,20.04
2023-06-30T18:05:29.054Z,20.13
2023-06-30T18:07:56.697Z,20.15
2023-06-30T18:10:24.543Z,20.16
2023-06-30T18:12:54.979Z,20.15
2023-06-30T18:15:24.242Z,20.23
2023-06-30T18:17:51.919Z,20.30
2023-06-30T18:20:19.639Z,20.20
2023-06-30T18:22:47.266Z,20.19
2023-06-30T18:25:14.969Z,20.21
2023-06-30T18:27:43.150Z,20.21
2023-06-30T18:30:11.366Z,20.24
2023-06-30T18:32:40.396Z,20.23
2023-06-30T18:35:08.735Z,20.22
2023-06-30T18:37:36.433Z,20.22
2023-06-30T18:40:04.615Z,20.23
2023-06-30T18:42:32.289Z,20.21
2023-06-30T18:45:00.277Z,20.13
2023-06-30T18:47:27.967Z,20.13
2023-06-30T18:49:56.953Z,19.96
2023-06-30T18:52:24.611Z,19.92
2023-06-30T18:54:52.284Z,19.89
2023-06-30T18:57:19.924Z,19.89
2023-06-30T18:59:49.459Z,19.93
2023-06-30T19:02:17.208Z,19.98
2023-06-30T19:04:45.115Z,19.91
2023-06-30T19:07:14.100Z,19.90
2023-06-30T19:09:41.749Z,19.91
2023-06-30T19:12:09.993Z,19.88
2023-06-30T19:14:37.608Z,19.85
2023-06-30T19:17:05.470Z,19.84
2023-06-30T19:19:33.213Z,19.86
2023-06-30T19:22:01.078Z,19.85
2023-06-30T19:24:30.098Z,19.87
2023-06-30T19:26:57.720Z,19.83
2023-06-30T19:29:25.352Z,19.82
2023-06-30T19:31:53.048Z,19.83
2023-06-30T19:34:20.768Z,19.79
2023-06-30T19:36:48.567Z,19.81
2023-06-30T19:39:16.209Z,19.82
2023-06-30T19:41:45.231Z,19.79
2023-06-30T19:44:12.872Z,19.78
2023-06-30T19:46:40.568Z,19.77
2023-06-30T19:49:08.378Z,19.77
2023-06-30T19:51:35.996Z,19.75
2023-06-30T19:54:03.687Z,19.74
2023-06-30T19:56:31.329Z,19.69
2023-06-30T19:59:00.478Z,19.58
2023-06-30T20:01:28.132Z,19.28
2023-06-30T20:03:55.906Z,19.30
2023-06-30T20:06:23.555Z,19.33
2023-06-30T20:08:51.307Z,19.29
2023-06-30T20:11:18.951Z,19.26
2023-06-30T20:13:48.702Z,19.27
2023-06-30T20:16:17.766Z,19.28
2023-06-30T20:18:45.408Z,19.27
2023-06-30T20:21:13.015Z,19.23
2023-06-30T20:23:40.642Z,19.18
2023-06-30T20:26:08.275Z,19.17
2023-06-30T20:28:36.932Z,19.16
2023-06-30T20:31:04.676Z,19.16
2023-06-30T20:33:34.095Z,19.05
2023-06-30T20:36:01.781Z,18.98
2023-06-30T20:38:29.409Z,18.98
2023-06-30T20:40:57.012Z,18.97
2023-06-30T20:43:24.693Z,18.92
2023-06-30T20:45:52.318Z,18.85
2023-06-30T20:48:19.948Z,18.84
2023-06-30T20:50:49.173Z,18.80
2023-06-30T20:53:17.193Z,18.77
2023-06-30T20:55:44.838Z,18.72
2023-06-30T20:58:12.504Z,18.68
2023-06-30T21:00:40.349Z,18.63
2023-06-30T21:03:08.122Z,18.55
2023-06-30T21:05:35.802Z,18.48
2023-06-30T21:08:05.085Z,18.42
2023-06-30T21:10:32.758Z,18.45
2023-06-30T21:13:00.993Z,18.43
2023-06-30T21:15:29.145Z,18.38
2023-06-30T21:17:56.974Z,18.37
2023-06-30T21:20:24.684Z,18.37
2023-06-30T21:22:52.328Z,18.39
2023-06-30T21:25:21.318Z,18.35
2023-06-30T21:27:48.958Z,18.35
2023-06-30T21:30:16.657Z,18.32
2023-06-30T21:32:45.346Z,18.26
2023-06-30T21:35:13.108Z,18.23
2023-06-30T21:37:40.749Z,18.15
2023-06-30T21:40:10.280Z,18.11
2023-06-30T21:42:39.341Z,18.12
2023-06-30T21:45:08.188Z,18.08
2023-06-30T21:47:35.847Z,18.08
2023-06-30T21:50:03.822Z,18.04
2023-06-30T21:52:31.466Z,18.06
2023-06-30T21:54:59.112Z,18.06
2023-06-30T21:57:26.749Z,18.03
2023-06-30T21:59:55.710Z,17.85
2023-06-30T22:02:23.574Z,17.86
2023-06-30T22:04:51.416Z,17.89
2023-06-30T22:07:19.538Z,17.88
2023-06-30T22:09:47.195Z,17.93
2023-06-30T22:12:14.878Z,17.95
2023-06-30T22:14:42.521Z,17.98
2023-06-30T22:17:11.511Z,17.98
2023-06-30T22:19:39.133Z,17.84
2023-06-30T22:22:07.730Z,17.86
2023-06-30T22:24:35.399Z,17.84
2023-06-30T22:27:03.046Z,17.86
2023-06-30T22:29:30.698Z,17.86
2023-06-30T22:31:58.316Z,17.84
2023-06-30T22:34:27.573Z,17.86
2023-06-30T22:36:55.269Z,17.87
2023-06-30T22:39:22.904Z,17.86
2023-06-30T22:41:50.560Z,17.83
2023-06-30T22:44:18.174Z,17.84
2023-06-30T22:46:45.858Z,17.83
2023-06-30T22:49:13.485Z,17.83
2023-06-30T22:51:42.494Z,17.75
2023-06-30T22:54:10.136Z,17.75
2023-06-30T22:56:38.133Z,17.77
2023-06-30T22:59:05.740Z,17.80
2023-06-30T23:01:33.413Z,17.84
2023-06-30T23:04:01.077Z,17.84
2023-06-30T23:06:29.117Z,17.85
2023-06-30T23:08:58.075Z,17.84
2023-06-30T23:11:25.712Z,17.82
2023-06-30T23:13:53.396Z,17.79
2023-06-30T23:16:21.055Z,17.72
2023-06-30T23:18:48.788Z,17.68
2023-06-30T23:21:19.046Z,17.57
2023-06-30T23:23:47.047Z,17.53
2023-06-30T23:26:16.734Z,17.58
2023-06-30T23:28:50.163Z,17.52
2023-06-30T23:31:20.575Z,17.34
2023-06-30T23:33:51.655Z,17.34
2023-06-30T23:36:19.715Z,17.38
2023-06-30T23:38:47.369Z,17.39
2023-06-30T23:41:16.862Z,17.36
2023-06-30T23:43:44.547Z,17.22
2023-06-30T23:46:19.164Z,17.07
2023-06-30T23:48:47.211Z,16.96
2023-06-30T23:51:15.003Z,17.06
2023-06-30T23:53:42.649Z,17.03
2023-06-30T23:56:10.345Z,17.05
2023-06-30T23:58:39.506Z,17.04
